sensor_id;sensor_type;location;lat;lon;timestamp;P1;durP1;ratioP1;P2;durP2;ratioP2
17504;SDS011;8870;50.950;11.762;2023-05-07T00:05:09;15.60;;;12.50;;
17504;SDS011;8870;50.950;11.762;2023-05-07T00:10:27;13.23;;;11.68;;
17504;SDS011;8870;50.950;11.762;2023-05-07T00:15:58;13.60;;;11.50;;
17504;SDS011;8870;50.950;11.762;2023-05-07T00:21:19;12.00;;;10.80;;
17504;SDS011;8870;50.950;11.762;2023-05-07T00:26:51;11.77;;;10.57;;
17504;SDS011;8870;50.950;11.762;2023-05-07T00:32:10;12.93;;;11.13;;
17504;SDS011;8870;50.950;11.762;2023-05-07T00:37:44;12.55;;;11.00;;
17504;SDS011;8870;50.950;11.762;2023-05-07T00:43:03;12.60;;;11.25;;
17504;SDS011;8870;50.950;11.762;2023-05-07T00:48:34;12.20;;;10.90;;
17504;SDS011;8870;50.950;11.762;2023-05-07T00:53:57;12.45;;;11.25;;
17504;SDS011;8870;50.950;11.762;2023-05-07T00:59:28;10.77;;;9.65;;
17504;SDS011;8870;50.950;11.762;2023-05-07T01:05:01;11.35;;;10.15;;
17504;SDS011;8870;50.950;11.762;2023-05-07T01:10:23;11.20;;;9.60;;
17504;SDS011;8870;50.950;11.762;2023-05-07T01:15:49;10.18;;;9.07;;
17504;SDS011;8870;50.950;11.762;2023-05-07T01:21:15;9.77;;;8.55;;
17504;SDS011;8870;50.950;11.762;2023-05-07T01:26:38;10.13;;;7.95;;
17504;SDS011;8870;50.950;11.762;2023-05-07T01:32:12;8.93;;;7.80;;
17504;SDS011;8870;50.950;11.762;2023-05-07T01:37:33;10.57;;;8.88;;
17504;SDS011;8870;50.950;11.762;2023-05-07T01:43:07;10.50;;;9.00;;
17504;SDS011;8870;50.950;11.762;2023-05-07T01:48:26;10.13;;;9.02;;
17504;SDS011;8870;50.950;11.762;2023-05-07T01:53:58;9.00;;;8.10;;
17504;SDS011;8870;50.950;11.762;2023-05-07T01:59:26;7.07;;;6.15;;
17504;SDS011;8870;50.950;11.762;2023-05-07T02:04:58;6.90;;;5.97;;
17504;SDS011;8870;50.950;11.762;2023-05-07T02:10:18;6.00;;;5.30;;
17504;SDS011;8870;50.950;11.762;2023-05-07T02:15:52;5.88;;;5.30;;
17504;SDS011;8870;50.950;11.762;2023-05-07T02:21:12;5.55;;;5.05;;
17504;SDS011;8870;50.950;11.762;2023-05-07T02:26:44;5.95;;;5.35;;
17504;SDS011;8870;50.950;11.762;2023-05-07T02:32:05;6.32;;;5.72;;
17504;SDS011;8870;50.950;11.762;2023-05-07T02:37:36;6.18;;;5.57;;
17504;SDS011;8870;50.950;11.762;2023-05-07T02:42:56;6.65;;;5.88;;
17504;SDS011;8870;50.950;11.762;2023-05-07T02:48:32;6.07;;;5.47;;
17504;SDS011;8870;50.950;11.762;2023-05-07T02:53:51;6.18;;;5.57;;
17504;SDS011;8870;50.950;11.762;2023-05-07T02:59:22;6.32;;;5.70;;
17504;SDS011;8870;50.950;11.762;2023-05-07T03:04:43;6.50;;;5.50;;
17504;SDS011;8870;50.950;11.762;2023-05-07T03:10:14;8.15;;;6.88;;
17504;SDS011;8870;50.950;11.762;2023-05-07T03:15:33;6.40;;;5.80;;
17504;SDS011;8870;50.950;11.762;2023-05-07T03:21:06;7.35;;;6.65;;
17504;SDS011;8870;50.950;11.762;2023-05-07T03:26:25;9.30;;;8.40;;
17504;SDS011;8870;50.950;11.762;2023-05-07T03:31:55;10.38;;;9.27;;
17504;SDS011;8870;50.950;11.762;2023-05-07T03:37:16;11.02;;;9.18;;
17504;SDS011;8870;50.950;11.762;2023-05-07T03:42:47;12.10;;;9.77;;
17504;SDS011;8870;50.950;11.762;2023-05-07T03:48:08;13.68;;;10.57;;
17504;SDS011;8870;50.950;11.762;2023-05-07T03:53:42;12.88;;;11.00;;
17504;SDS011;8870;50.950;11.762;2023-05-07T03:59:03;14.40;;;11.85;;
17504;SDS011;8870;50.950;11.762;2023-05-07T04:04:34;13.20;;;10.95;;
17504;SDS011;8870;50.950;11.762;2023-05-07T04:09:55;13.02;;;10.63;;
17504;SDS011;8870;50.950;11.762;2023-05-07T04:15:29;12.20;;;10.07;;
17504;SDS011;8870;50.950;11.762;2023-05-07T04:20:50;12.27;;;9.80;;
17504;SDS011;8870;50.950;11.762;2023-05-07T04:26:24;11.45;;;9.20;;
17504;SDS011;8870;50.950;11.762;2023-05-07T04:31:43;11.18;;;8.48;;
17504;SDS011;8870;50.950;11.762;2023-05-07T04:37:19;9.82;;;8.60;;
17504;SDS011;8870;50.950;11.762;2023-05-07T04:42:41;9.10;;;8.20;;
17504;SDS011;8870;50.950;11.762;2023-05-07T04:48:18;8.82;;;7.93;;
17504;SDS011;8870;50.950;11.762;2023-05-07T04:53:39;8.38;;;7.47;;
17504;SDS011;8870;50.950;11.762;2023-05-07T04:59:14;10.85;;;8.35;;
17504;SDS011;8870;50.950;11.762;2023-05-07T05:04:45;9.52;;;8.07;;
17504;SDS011;8870;50.950;11.762;2023-05-07T05:10:04;9.70;;;8.20;;
17504;SDS011;8870;50.950;11.762;2023-05-07T05:15:41;8.57;;;7.70;;
17504;SDS011;8870;50.950;11.762;2023-05-07T05:21:01;8.05;;;7.25;;
17504;SDS011;8870;50.950;11.762;2023-05-07T05:26:37;7.85;;;7.05;;
17504;SDS011;8870;50.950;11.762;2023-05-07T05:31:59;8.82;;;6.55;;
17504;SDS011;8870;50.950;11.762;2023-05-07T05:37:31;6.80;;;6.10;;
17504;SDS011;8870;50.950;11.762;2023-05-07T05:42:51;6.47;;;5.68;;
17504;SDS011;8870;50.950;11.762;2023-05-07T05:48:26;5.97;;;5.38;;
17504;SDS011;8870;50.950;11.762;2023-05-07T05:53:46;7.07;;;5.35;;
17504;SDS011;8870;50.950;11.762;2023-05-07T05:59:16;6.28;;;5.68;;
17504;SDS011;8870;50.950;11.762;2023-05-07T06:04:37;6.30;;;5.70;;
17504;SDS011;8870;50.950;11.762;2023-05-07T06:10:09;5.95;;;5.35;;
17504;SDS011;8870;50.950;11.762;2023-05-07T06:15:28;6.72;;;6.00;;
17504;SDS011;8870;50.950;11.762;2023-05-07T06:21:02;6.15;;;5.55;;
17504;SDS011;8870;50.950;11.762;2023-05-07T06:26:22;6.97;;;6.03;;
17504;SDS011;8870;50.950;11.762;2023-05-07T06:31:53;6.97;;;5.80;;
17504;SDS011;8870;50.950;11.762;2023-05-07T06:37:16;6.70;;;6.00;;
17504;SDS011;8870;50.950;11.762;2023-05-07T06:42:49;7.65;;;6.55;;
17504;SDS011;8870;50.950;11.762;2023-05-07T06:48:16;7.20;;;6.50;;
17504;SDS011;8870;50.950;11.762;2023-05-07T06:53:50;7.43;;;6.65;;
17504;SDS011;8870;50.950;11.762;2023-05-07T06:59:11;7.25;;;6.55;;
17504;SDS011;8870;50.950;11.762;2023-05-07T07:04:37;7.53;;;6.65;;
17504;SDS011;8870;50.950;11.762;2023-05-07T07:10:07;8.02;;;7.00;;
17504;SDS011;8870;50.950;11.762;2023-05-07T07:15:27;8.73;;;6.78;;
17504;SDS011;8870;50.950;11.762;2023-05-07T07:20:59;7.15;;;6.45;;
17504;SDS011;8870;50.950;11.762;2023-05-07T07:26:20;7.75;;;6.95;;
17504;SDS011;8870;50.950;11.762;2023-05-07T07:31:55;7.38;;;6.57;;
17504;SDS011;8870;50.950;11.762;2023-05-07T07:37:14;6.80;;;6.10;;
17504;SDS011;8870;50.950;11.762;2023-05-07T07:42:49;6.43;;;5.80;;
17504;SDS011;8870;50.950;11.762;2023-05-07T07:48:08;6.85;;;6.00;;
17504;SDS011;8870;50.950;11.762;2023-05-07T07:53:40;6.20;;;5.60;;
17504;SDS011;8870;50.950;11.762;2023-05-07T07:59:02;7.07;;;5.70;;
17504;SDS011;8870;50.950;11.762;2023-05-07T08:04:32;5.78;;;5.20;;
17504;SDS011;8870;50.950;11.762;2023-05-07T08:09:52;6.38;;;5.25;;
17504;SDS011;8870;50.950;11.762;2023-05-07T08:15:26;5.72;;;5.20;;
17504;SDS011;8870;50.950;11.762;2023-05-07T08:20:46;5.30;;;4.80;;
17504;SDS011;8870;50.950;11.762;2023-05-07T08:26:18;7.18;;;4.88;;
17504;SDS011;8870;50.950;11.762;2023-05-07T08:31:38;4.90;;;4.40;;
17504;SDS011;8870;50.950;11.762;2023-05-07T08:37:10;5.05;;;4.38;;
17504;SDS011;8870;50.950;11.762;2023-05-07T08:42:29;5.28;;;4.32;;
17504;SDS011;8870;50.950;11.762;2023-05-07T08:48:09;5.10;;;4.65;;
17504;SDS011;8870;50.950;11.762;2023-05-07T08:53:39;5.00;;;4.40;;
17504;SDS011;8870;50.950;11.762;2023-05-07T08:59:14;4.78;;;4.28;;
17504;SDS011;8870;50.950;11.762;2023-05-07T09:04:35;4.45;;;4.05;;
17504;SDS011;8870;50.950;11.762;2023-05-07T09:10:08;4.15;;;3.75;;
17504;SDS011;8870;50.950;11.762;2023-05-07T09:15:28;4.80;;;4.40;;
17504;SDS011;8870;50.950;11.762;2023-05-07T09:21:02;4.80;;;4.30;;
17504;SDS011;8870;50.950;11.762;2023-05-07T09:26:23;6.15;;;4.18;;
17504;SDS011;8870;50.950;11.762;2023-05-07T09:31:56;4.43;;;4.00;;
17504;SDS011;8870;50.950;11.762;2023-05-07T09:37:23;5.00;;;4.10;;
17504;SDS011;8870;50.950;11.762;2023-05-07T09:43:07;4.70;;;4.25;;
17504;SDS011;8870;50.950;11.762;2023-05-07T09:48:32;5.00;;;4.35;;
17504;SDS011;8870;50.950;11.762;2023-05-07T09:54:10;4.95;;;4.45;;
17504;SDS011;8870;50.950;11.762;2023-05-07T09:59:31;4.63;;;4.22;;
17504;SDS011;8870;50.950;11.762;2023-05-07T10:05:04;4.70;;;4.00;;
17504;SDS011;8870;50.950;11.762;2023-05-07T10:10:40;4.00;;;3.67;;
17504;SDS011;8870;50.950;11.762;2023-05-07T10:16:01;4.20;;;3.80;;
17504;SDS011;8870;50.950;11.762;2023-05-07T10:21:35;4.57;;;4.18;;
17504;SDS011;8870;50.950;11.762;2023-05-07T10:26:58;4.00;;;3.60;;
17504;SDS011;8870;50.950;11.762;2023-05-07T10:32:38;4.07;;;3.67;;
17504;SDS011;8870;50.950;11.762;2023-05-07T10:38:04;3.92;;;3.55;;
17504;SDS011;8870;50.950;11.762;2023-05-07T10:43:42;4.32;;;3.90;;
17504;SDS011;8870;50.950;11.762;2023-05-07T10:49:08;4.32;;;3.92;;
17504;SDS011;8870;50.950;11.762;2023-05-07T10:54:44;4.05;;;3.53;;
17504;SDS011;8870;50.950;11.762;2023-05-07T11:00:06;3.80;;;3.50;;
17504;SDS011;8870;50.950;11.762;2023-05-07T11:06:20;4.57;;;3.10;;
17504;SDS011;8870;50.950;11.762;2023-05-07T11:11:46;3.97;;;3.58;;
17504;SDS011;8870;50.950;11.762;2023-05-07T11:17:29;3.70;;;3.25;;
17504;SDS011;8870;50.950;11.762;2023-05-07T11:22:49;5.25;;;3.10;;
17504;SDS011;8870;50.950;11.762;2023-05-07T11:28:26;3.00;;;2.72;;
17504;SDS011;8870;50.950;11.762;2023-05-07T11:33:49;3.15;;;2.65;;
17504;SDS011;8870;50.950;11.762;2023-05-07T11:39:27;2.90;;;2.70;;
17504;SDS011;8870;50.950;11.762;2023-05-07T11:44:47;2.58;;;2.33;;
17504;SDS011;8870;50.950;11.762;2023-05-07T11:50:20;2.92;;;2.63;;
17504;SDS011;8870;50.950;11.762;2023-05-07T11:55:39;2.70;;;2.50;;
17504;SDS011;8870;50.950;11.762;2023-05-07T12:01:11;2.53;;;2.33;;
17504;SDS011;8870;50.950;11.762;2023-05-07T12:06:35;2.33;;;2.15;;
17504;SDS011;8870;50.950;11.762;2023-05-07T12:12:07;2.50;;;2.30;;
17504;SDS011;8870;50.950;11.762;2023-05-07T12:17:26;2.65;;;2.45;;
17504;SDS011;8870;50.950;11.762;2023-05-07T12:22:59;2.50;;;2.30;;
17504;SDS011;8870;50.950;11.762;2023-05-07T12:28:19;2.38;;;2.15;;
17504;SDS011;8870;50.950;11.762;2023-05-07T12:33:50;2.42;;;2.20;;
17504;SDS011;8870;50.950;11.762;2023-05-07T12:39:10;2.38;;;2.17;;
17504;SDS011;8870;50.950;11.762;2023-05-07T12:44:43;2.63;;;2.03;;
17504;SDS011;8870;50.950;11.762;2023-05-07T12:50:05;1.95;;;1.85;;
17504;SDS011;8870;50.950;11.762;2023-05-07T12:55:44;2.00;;;1.80;;
17504;SDS011;8870;50.950;11.762;2023-05-07T13:01:04;1.90;;;1.80;;
17504;SDS011;8870;50.950;11.762;2023-05-07T13:06:41;1.70;;;1.60;;
17504;SDS011;8870;50.950;11.762;2023-05-07T13:12:02;1.80;;;1.60;;
17504;SDS011;8870;50.950;11.762;2023-05-07T13:17:34;1.88;;;1.77;;
17504;SDS011;8870;50.950;11.762;2023-05-07T13:22:52;1.70;;;1.60;;
17504;SDS011;8870;50.950;11.762;2023-05-07T13:28:28;3.03;;;1.80;;
17504;SDS011;8870;50.950;11.762;2023-05-07T13:33:47;1.60;;;1.50;;
17504;SDS011;8870;50.950;11.762;2023-05-07T13:39:19;1.55;;;1.45;;
17504;SDS011;8870;50.950;11.762;2023-05-07T13:44:39;3.03;;;1.10;;
17504;SDS011;8870;50.950;11.762;2023-05-07T13:50:11;1.25;;;1.02;;
17504;SDS011;8870;50.950;11.762;2023-05-07T13:55:31;2.35;;;1.10;;
17504;SDS011;8870;50.950;11.762;2023-05-07T14:01:06;1.20;;;1.10;;
17504;SDS011;8870;50.950;11.762;2023-05-07T14:06:24;0.90;;;0.90;;
17504;SDS011;8870;50.950;11.762;2023-05-07T14:11:56;0.90;;;0.90;;
17504;SDS011;8870;50.950;11.762;2023-05-07T14:17:16;0.80;;;0.80;;
17504;SDS011;8870;50.950;11.762;2023-05-07T14:22:49;1.25;;;1.00;;
17504;SDS011;8870;50.950;11.762;2023-05-07T14:28:07;1.40;;;1.20;;
17504;SDS011;8870;50.950;11.762;2023-05-07T14:33:40;1.35;;;1.20;;
17504;SDS011;8870;50.950;11.762;2023-05-07T14:38:59;1.50;;;1.20;;
17504;SDS011;8870;50.950;11.762;2023-05-07T14:44:30;1.30;;;1.20;;
17504;SDS011;8870;50.950;11.762;2023-05-07T14:49:51;1.35;;;1.25;;
17504;SDS011;8870;50.950;11.762;2023-05-07T14:55:23;1.50;;;1.40;;
17504;SDS011;8870;50.950;11.762;2023-05-07T15:00:42;1.35;;;1.35;;
17504;SDS011;8870;50.950;11.762;2023-05-07T15:06:18;1.40;;;1.30;;
17504;SDS011;8870;50.950;11.762;2023-05-07T15:11:37;3.10;;;1.40;;
17504;SDS011;8870;50.950;11.762;2023-05-07T15:17:09;3.28;;;1.50;;
17504;SDS011;8870;50.950;11.762;2023-05-07T15:22:30;1.45;;;1.20;;
17504;SDS011;8870;50.950;11.762;2023-05-07T15:28:03;1.58;;;1.42;;
17504;SDS011;8870;50.950;11.762;2023-05-07T15:33:21;1.38;;;1.27;;
17504;SDS011;8870;50.950;11.762;2023-05-07T15:38:54;2.47;;;1.60;;
17504;SDS011;8870;50.950;11.762;2023-05-07T15:44:13;3.65;;;1.40;;
17504;SDS011;8870;50.950;11.762;2023-05-07T15:49:50;1.70;;;1.40;;
17504;SDS011;8870;50.950;11.762;2023-05-07T15:55:11;3.03;;;1.40;;
17504;SDS011;8870;50.950;11.762;2023-05-07T16:00:42;1.60;;;1.40;;
17504;SDS011;8870;50.950;11.762;2023-05-07T16:06:07;1.52;;;1.40;;
17504;SDS011;8870;50.950;11.762;2023-05-07T16:11:41;2.70;;;1.50;;
17504;SDS011;8870;50.950;11.762;2023-05-07T16:17:00;1.52;;;1.40;;
17504;SDS011;8870;50.950;11.762;2023-05-07T16:22:31;1.88;;;1.30;;
17504;SDS011;8870;50.950;11.762;2023-05-07T16:27:53;1.38;;;1.27;;
17504;SDS011;8870;50.950;11.762;2023-05-07T16:33:25;1.30;;;1.20;;
17504;SDS011;8870;50.950;11.762;2023-05-07T16:38:43;1.30;;;1.10;;
17504;SDS011;8870;50.950;11.762;2023-05-07T16:44:17;1.90;;;1.23;;
17504;SDS011;8870;50.950;11.762;2023-05-07T16:49:35;1.85;;;1.35;;
17504;SDS011;8870;50.950;11.762;2023-05-07T16:55:06;1.40;;;1.30;;
17504;SDS011;8870;50.950;11.762;2023-05-07T17:00:28;3.90;;;1.58;;
17504;SDS011;8870;50.950;11.762;2023-05-07T17:06:02;1.42;;;1.33;;
17504;SDS011;8870;50.950;11.762;2023-05-07T17:11:35;3.38;;;1.45;;
17504;SDS011;8870;50.950;11.762;2023-05-07T17:16:56;1.60;;;1.50;;
17504;SDS011;8870;50.950;11.762;2023-05-07T17:22:28;2.00;;;1.50;;
17504;SDS011;8870;50.950;11.762;2023-05-07T17:27:48;1.77;;;1.67;;
17504;SDS011;8870;50.950;11.762;2023-05-07T17:33:22;1.60;;;1.50;;
17504;SDS011;8870;50.950;11.762;2023-05-07T17:38:41;1.42;;;1.33;;
17504;SDS011;8870;50.950;11.762;2023-05-07T17:44:12;2.03;;;1.33;;
17504;SDS011;8870;50.950;11.762;2023-05-07T17:49:33;1.30;;;1.20;;
17504;SDS011;8870;50.950;11.762;2023-05-07T17:55:04;2.05;;;1.25;;
17504;SDS011;8870;50.950;11.762;2023-05-07T18:00:23;1.42;;;1.20;;
17504;SDS011;8870;50.950;11.762;2023-05-07T18:05:56;1.45;;;1.35;;
17504;SDS011;8870;50.950;11.762;2023-05-07T18:11:28;1.60;;;1.25;;
17504;SDS011;8870;50.950;11.762;2023-05-07T18:16:47;1.33;;;1.23;;
17504;SDS011;8870;50.950;11.762;2023-05-07T18:22:20;1.85;;;1.55;;
17504;SDS011;8870;50.950;11.762;2023-05-07T18:27:39;2.20;;;1.60;;
17504;SDS011;8870;50.950;11.762;2023-05-07T18:33:11;2.47;;;1.50;;
17504;SDS011;8870;50.950;11.762;2023-05-07T18:38:33;1.65;;;1.55;;
17504;SDS011;8870;50.950;11.762;2023-05-07T18:44:05;2.92;;;1.60;;
17504;SDS011;8870;50.950;11.762;2023-05-07T18:49:23;2.00;;;1.80;;
17504;SDS011;8870;50.950;11.762;2023-05-07T18:54:57;1.85;;;1.67;;
17504;SDS011;8870;50.950;11.762;2023-05-07T19:00:15;1.70;;;1.60;;
17504;SDS011;8870;50.950;11.762;2023-05-07T19:05:47;4.25;;;1.60;;
17504;SDS011;8870;50.950;11.762;2023-05-07T19:11:22;1.65;;;1.55;;
17504;SDS011;8870;50.950;11.762;2023-05-07T19:16:40;2.20;;;1.85;;
17504;SDS011;8870;50.950;11.762;2023-05-07T19:22:11;2.20;;;1.83;;
17504;SDS011;8870;50.950;11.762;2023-05-07T19:27:32;2.92;;;1.80;;
17504;SDS011;8870;50.950;11.762;2023-05-07T19:33:03;2.10;;;1.90;;
17504;SDS011;8870;50.950;11.762;2023-05-07T19:38:21;3.58;;;2.00;;
17504;SDS011;8870;50.950;11.762;2023-05-07T19:43:54;2.45;;;2.17;;
17504;SDS011;8870;50.950;11.762;2023-05-07T19:49:13;2.78;;;2.35;;
17504;SDS011;8870;50.950;11.762;2023-05-07T19:54:44;2.60;;;2.40;;
17504;SDS011;8870;50.950;11.762;2023-05-07T20:00:05;2.60;;;2.40;;
17504;SDS011;8870;50.950;11.762;2023-05-07T20:05:38;2.80;;;2.60;;
17504;SDS011;8870;50.950;11.762;2023-05-07T20:11:09;2.60;;;2.40;;
17504;SDS011;8870;50.950;11.762;2023-05-07T20:16:37;3.20;;;2.75;;
17504;SDS011;8870;50.950;11.762;2023-05-07T20:22:09;4.10;;;2.67;;
17504;SDS011;8870;50.950;11.762;2023-05-07T20:27:27;2.92;;;2.55;;
17504;SDS011;8870;50.950;11.762;2023-05-07T20:33:03;3.30;;;3.00;;
17504;SDS011;8870;50.950;11.762;2023-05-07T20:38:21;3.00;;;2.80;;
17504;SDS011;8870;50.950;11.762;2023-05-07T20:43:54;4.20;;;3.00;;
17504;SDS011;8870;50.950;11.762;2023-05-07T20:49:28;3.10;;;2.80;;
17504;SDS011;8870;50.950;11.762;2023-05-07T20:54:46;3.15;;;2.92;;
17504;SDS011;8870;50.950;11.762;2023-05-07T21:00:17;3.13;;;2.92;;
17504;SDS011;8870;50.950;11.762;2023-05-07T21:05:38;3.55;;;3.25;;
17504;SDS011;8870;50.950;11.762;2023-05-07T21:11:09;3.58;;;3.20;;
17504;SDS011;8870;50.950;11.762;2023-05-07T21:16:27;3.50;;;3.20;;
17504;SDS011;8870;50.950;11.762;2023-05-07T21:22:01;3.53;;;3.22;;
17504;SDS011;8870;50.950;11.762;2023-05-07T21:27:19;4.38;;;3.00;;
17504;SDS011;8870;50.950;11.762;2023-05-07T21:32:50;3.30;;;3.00;;
17504;SDS011;8870;50.950;11.762;2023-05-07T21:38:12;3.92;;;3.63;;
17504;SDS011;8870;50.950;11.762;2023-05-07T21:43:43;3.60;;;3.30;;
17504;SDS011;8870;50.950;11.762;2023-05-07T21:49:01;4.05;;;3.40;;
17504;SDS011;8870;50.950;11.762;2023-05-07T21:54:35;4.72;;;3.42;;
17504;SDS011;8870;50.950;11.762;2023-05-07T21:59:53;3.47;;;3.17;;
17504;SDS011;8870;50.950;11.762;2023-05-07T22:05:26;3.72;;;3.42;;
17504;SDS011;8870;50.950;11.762;2023-05-07T22:11:00;3.90;;;3.60;;
17504;SDS011;8870;50.950;11.762;2023-05-07T22:16:19;3.47;;;3.28;;
17504;SDS011;8870;50.950;11.762;2023-05-07T22:21:50;4.10;;;3.80;;
17504;SDS011;8870;50.950;11.762;2023-05-07T22:27:11;3.92;;;3.53;;
17504;SDS011;8870;50.950;11.762;2023-05-07T22:32:42;4.00;;;3.70;;
17504;SDS011;8870;50.950;11.762;2023-05-07T22:38:01;4.03;;;3.72;;
17504;SDS011;8870;50.950;11.762;2023-05-07T22:43:35;4.10;;;3.65;;
17504;SDS011;8870;50.950;11.762;2023-05-07T22:48:53;4.20;;;3.80;;
17504;SDS011;8870;50.950;11.762;2023-05-07T22:54:25;4.10;;;3.70;;
17504;SDS011;8870;50.950;11.762;2023-05-07T22:59:46;4.38;;;3.97;;
17504;SDS011;8870;50.950;11.762;2023-05-07T23:05:17;4.20;;;3.80;;
17504;SDS011;8870;50.950;11.762;2023-05-07T23:10:48;4.37;;;4.07;;
17504;SDS011;8870;50.950;11.762;2023-05-07T23:16:09;4.50;;;3.80;;
17504;SDS011;8870;50.950;11.762;2023-05-07T23:21:40;4.80;;;4.40;;
17504;SDS011;8870;50.950;11.762;2023-05-07T23:26:58;4.20;;;3.90;;
17504;SDS011;8870;50.950;11.762;2023-05-07T23:32:36;5.30;;;3.97;;
17504;SDS011;8870;50.950;11.762;2023-05-07T23:37:54;4.80;;;4.40;;
17504;SDS011;8870;50.950;11.762;2023-05-07T23:43:26;4.65;;;4.28;;
17504;SDS011;8870;50.950;11.762;2023-05-07T23:48:47;4.78;;;4.38;;
17504;SDS011;8870;50.950;11.762;2023-05-07T23:54:18;5.03;;;4.60;;
17504;SDS011;8870;50.950;11.762;2023-05-07T23:59:37;4.80;;;4.40;;
